Comiso Airport


Codes: LICB/CIY
Name: Comiso Airport
City: Comiso
Country: Italy
Elevation: 623 ft.
Website:
Wikipedia:

Photos at Comiso Airport


   Photos courtesy of SpottingLog. You can add your own sightings and photos by signing up for a free trial today.



No photos found.

Weather at Comiso Airport


Time (UTC)DescriptionTempratureWindCloud coverageVisibilityPressureHumidity
23-May-2024 18:00Broken Clouds24°C2 mph, W60%10000m1017hPa31%
23-May-2024 21:00Broken Clouds22°C4 mph, NE70%10000m1018hPa39%
24-May-2024 00:00Broken Clouds19°C4 mph, E65%10000m1018hPa43%
24-May-2024 03:00Clear Sky17°C4 mph, NE7%10000m1018hPa49%
24-May-2024 06:00Clear Sky23°C0 mph, NE4%10000m1018hPa33%
24-May-2024 09:00Clear Sky28°C9 mph, SW4%10000m1018hPa22%
24-May-2024 12:00Clear Sky28°C13 mph, SW3%10000m1017hPa25%
24-May-2024 15:00Overcast Clouds26°C11 mph, SW90%10000m1017hPa27%
24-May-2024 18:00Overcast Clouds20°C4 mph, SW95%10000m1018hPa50%
24-May-2024 21:00Overcast Clouds19°C4 mph, NE88%10000m1018hPa48%
25-May-2024 00:00Broken Clouds18°C7 mph, NE77%10000m1016hPa45%
25-May-2024 03:00Few Clouds18°C4 mph, E19%10000m1015hPa45%
25-May-2024 06:00Broken Clouds23°C2 mph, N59%10000m1016hPa32%
25-May-2024 09:00Scattered Clouds28°C11 mph, SW44%10000m1015hPa25%
25-May-2024 12:00Scattered Clouds27°C13 mph, SW36%10000m1015hPa29%
25-May-2024 15:00Scattered Clouds25°C11 mph, SW44%10000m1015hPa37%
25-May-2024 18:00Scattered Clouds20°C4 mph, W45%10000m1015hPa52%
25-May-2024 21:00Clear Sky17°C2 mph, NE3%10000m1016hPa60%
26-May-2024 00:00Clear Sky16°C0 mph, NE1%10000m1015hPa63%
26-May-2024 03:00Scattered Clouds16°C4 mph, NE34%10000m1015hPa62%
26-May-2024 06:00Scattered Clouds22°C4 mph, NE27%10000m1016hPa44%
26-May-2024 09:00Clear Sky26°C9 mph, SW0%10000m1016hPa35%
26-May-2024 12:00Clear Sky25°C13 mph, SW9%10000m1017hPa42%
26-May-2024 15:00Scattered Clouds23°C7 mph, SW29%10000m1017hPa47%
26-May-2024 18:00Scattered Clouds19°C2 mph, SW29%10000m1018hPa66%
26-May-2024 21:00Clear Sky17°C7 mph, NE7%10000m1019hPa65%
27-May-2024 00:00Clear Sky16°C7 mph, NE4%10000m1019hPa73%
27-May-2024 03:00Clear Sky16°C7 mph, NE2%10000m1018hPa73%
27-May-2024 06:00Clear Sky21°C2 mph, SE7%10000m1019hPa47%
27-May-2024 09:00Few Clouds25°C11 mph, SW14%10000m1020hPa38%
27-May-2024 12:00Scattered Clouds25°C11 mph, SW31%10000m1019hPa42%
27-May-2024 15:00Overcast Clouds24°C9 mph, SW90%10000m1019hPa48%
27-May-2024 18:00Broken Clouds19°C4 mph, W61%10000m1019hPa71%
27-May-2024 21:00Few Clouds16°C2 mph, N13%10000m1020hPa85%
28-May-2024 00:00Few Clouds16°C2 mph, N14%10000m1019hPa79%
28-May-2024 03:00Broken Clouds16°C2 mph, NE69%10000m1018hPa74%
28-May-2024 06:00Broken Clouds21°C4 mph, W54%10000m1018hPa53%
28-May-2024 09:00Broken Clouds25°C13 mph, W63%10000m1018hPa43%
28-May-2024 12:00Broken Clouds24°C13 mph, W81%10000m1018hPa44%
28-May-2024 15:00Scattered Clouds23°C11 mph, W42%10000m1017hPa46%